Tiempo atmosférico en la estación meteorológica de Orozko, Bizkaia (270 m.)



Fecha
DESCASC
Temp. máxima en grados centígrados (hora)
DESCASC
Temp. mínima en grados centígrados (hora)
DESCASC
Temp. media en grados centígrados
DESCASC
Racha de viento máxima en m/sg (hora)
DESCASC
Velocidad máxima media en intervalos de 10 minutos(hora)
DESCASC
Precipitaciones diarias en mm
DESCASC
Precipitaciones de 00:00 a 06:00 en mm
DESCASC
Precipitaciones de 06:00 a 12:00 en mm
DESCASC
Precipitaciones de 12:00 a 18:00 en mm
DESCASC
Precipitaciones de 18:00 a 24:00 en mm
DESCASC
28-02-2021 10.6 (16:20) 5.6 (06:30) 8.1 11.94 (21:50) 3.61 (22:20) 18.6 0 0 0 18.6
27-02-2021 12.6 (12:50) 7.2 (23:59) 9.9 5.83 (13:40) 2.78 (13:40) 0 0 0 0 0
26-02-2021 12.1 (13:40) 9.7 (23:20) 10.9 3.33 (19:10) 1.39 (14:40) 0 0 0 0 0
25-02-2021 16.1 (13:50) 7.5 (00:00) 11.8 4.17 (00:30) 1.67 (03:20) 0 0 0 0 0
24-02-2021 21.2 (16:40) 9.3 (00:00) 15.3 11.11 (13:50) 4.72 (21:10) 0 0 0 0 0
23-02-2021 19 (17:20) 3.5 (00:00) 11.3 12.5 (14:30) 6.39 (14:20) 0.2 0 0.2 0 0
22-02-2021 9.5 (15:40) 3.8 (00:00) 6.6 4.44 (00:20) 1.94 (01:00) 21 15 5.6 0.4 0
21-02-2021 17.2 (00:00) 5.8 (00:00) 11.5 16.67 (09:10) 8.06 (04:20) 22 0 0 0 22
20-02-2021 21.6 (16:20) 15.7 (00:00) 18.7 15.28 (08:50) 6.94 (09:30) 0 0 0 0 0
19-02-2021 21.1 (15:20) 6.5 (00:00) 13.8 16.67 (09:50) 7.78 (09:50) 0 0 0 0 0
18-02-2021 17.4 (00:10) 6.5 (00:00) 11.9 10 (01:20) 4.17 (00:20) 0 0 0 0 0
17-02-2021 17.3 (22:50) 4.9 (00:00) 11.1 16.11 (22:50) 6.94 (22:50) 0 0 0 0 0
16-02-2021 15.8 (06:50) 6.2 (00:00) 11 15.83 (11:00) 7.78 (11:00) 0.2 0 0 0 0.2
15-02-2021 18.2 (16:00) 10.1 (00:00) 14.2 18.06 (12:10) 7.78 (12:10) 0 0 0 0 0
14-02-2021 17.8 (14:30) 4.1 (00:00) 10.9 16.11 (13:00) 6.67 (12:40) 0 0 0 0 0
13-02-2021 15.5 (16:50) 4.4 (00:00) 10 3.61 (18:30) 2.22 (18:30) 0.2 0 0.2 0 0
12-02-2021 16.3 (03:30) 7.4 (00:00) 11.8 13.33 (04:10) 5.28 (04:30) 14.6 2.4 3.6 7.4 1.2
11-02-2021 17.9 (15:00) 3.3 (00:00) 10.6 10 (18:30) 3.61 (18:00) 0 0 0 0 0
10-02-2021 12.3 (16:30) 4.2 (00:00) 8.3 9.44 (01:10) 3.61 (02:00) 2.8 2.4 0.4 0 0
09-02-2021 13.3 (11:50) 5.1 (00:00) 9.2 25.28 (10:10) 8.06 (10:10) 0.6 0.2 0 0.4 0
08-02-2021 13.8 (14:00) 5.2 (00:00) 9.5 16.11 (03:10) 7.5 (03:20) 2.2 1.2 0.8 0 0.2
07-02-2021 10.9 (14:30) 3.9 (00:00) 7.4 9.44 (20:20) 5.28 (20:20) 1.6 0.4 0 0 1.2
06-02-2021 9.6 (01:50) 4.8 (00:00) 7.2 7.78 (11:10) 3.61 (11:10) 33.8 5 19.8 6.4 2.6
05-02-2021 10.4 (15:50) 6.8 (00:00) 8.6 3.06 (07:20) 1.67 (07:50) 1.8 0 0.6 0 1.2
04-02-2021 14.6 (12:20) 8.4 (00:00) 11.5 6.39 (05:50) 2.78 (10:50) 5.4 0 0 0 5.4
03-02-2021 17.2 (16:40) 12.8 (00:00) 15 13.61 (00:50) 6.39 (00:50) 0 0 0 0 0
02-02-2021 18.9 (13:50) 8 (00:00) 13.4 17.22 (22:50) 7.22 (22:40) 0.8 0 0 0.8 0
01-02-2021 18.3 (15:50) 8.4 (00:00) 13.3 8.61 (13:50) 3.89 (13:50) 2.4 0 0 0 2.4
31-01-2021 17 (15:50) 7.9 (00:00) 12.5 12.78 (03:30) 5.83 (03:30) 2.8 0 2.6 0.2 0

Gráficas

Temp. máximas Temp. mínimas Temp. medias Precipitaciones Rachas de viento máximas Velocidades máximas media en intervalos de 10 minutos

Datos horarios

Fecha y hora oficial Temperatura (ºC) Velocidad del viento (km/h) Dirección del viento Racha (km/h) Dirección de racha Precipitación (mm) Presión (hPa) Tendencia (hPa) Humedad (%)
2021-03-01 23:00:00 12.3 15 Sudoeste 49 Sudoeste 0 -- -- 62
2021-03-01 22:00:00 12.2 15 Sudoeste 40 Sur 0 -- -- 62
2021-03-01 21:00:00 12.1 19 Sudoeste 40 Sudoeste 0 -- -- 64
2021-03-01 20:00:00 12.1 15 Sudoeste 33 Sudoeste 0 -- -- 64
2021-03-01 19:00:00 12.7 14 Sudoeste 40 Sudoeste 0 -- -- 60
2021-03-01 18:00:00 13.4 12 Sudoeste 46 Sudoeste 0 -- -- 60
2021-03-01 17:00:00 14.7 18 Sudoeste 43 Sur 0 -- -- 55
2021-03-01 16:00:00 15.9 9 Sudoeste 32 Oeste 0 -- -- 52
2021-03-01 15:00:00 15.7 15 Sudoeste 44 Sudoeste 0 -- -- 52
2021-03-01 14:00:00 13.7 17 Sudoeste 44 Oeste 0 -- -- 55
2021-03-01 13:00:00 14.4 19 Sudoeste 52 Sudoeste 0 -- -- 53
2021-03-01 12:00:00 14.5 10 Sur 36 Sur 0 -- -- 53
2021-03-01 11:00:00 13.3 10 Sudoeste 39 Sudoeste 0 -- -- 55
2021-03-01 10:00:00 11.7 17 Sur 59 Sur 0 -- -- 59
2021-03-01 09:00:00 10.6 24 Sudoeste 58 Sudoeste 0 -- -- 63
2021-03-01 08:00:00 10.5 28 Sudoeste 55 Oeste 0 -- -- 62
2021-03-01 07:00:00 10.1 23 Sudoeste 45 Oeste 0 -- -- 66
2021-03-01 06:00:00 9.9 17 Sudoeste 45 Sudoeste 0 -- -- 67
2021-03-01 05:00:00 9.9 16 Sudoeste 45 Sudoeste 0 -- -- 66
2021-03-01 04:00:00 10.3 18 Sudoeste 42 Sudoeste 0 -- -- 64
2021-03-01 03:00:00 10.3 13 Sudoeste 41 Sur 0 -- -- 66
2021-03-01 02:00:00 10.4 9 Sudoeste 39 Sudoeste 0 -- -- 67
2021-03-01 01:00:00 9.7 9 Sudoeste 33 Sudoeste 0 -- -- 75
2021-03-01 00:00:00 8.9 7 Oeste 23 Sudoeste 0 -- -- 89
2021-02-28 23:00:00 8.8 4 Sudeste 32 Sur 9.8 -- -- 91
2021-02-28 22:00:00 9.7 13 Sur 43 Sur 5.2 -- -- 92
2021-02-28 21:00:00 8.3 4 Nordeste 10 Norte 3 -- -- 94
2021-02-28 20:00:00 8.5 0 Calma 12 Nordeste 0.2 -- -- 92
2021-02-28 19:00:00 9.1 0 Calma 10 Oeste 0.4 -- -- 87
2021-02-28 18:00:00 10.3 5 Nordeste 13 Este 0 -- -- 74
2021-02-28 17:00:00 10.4 4 Sudeste 14 Sudeste 0 -- -- 77
2021-02-28 16:00:00 10.3 0 Calma 7 Sur 0 -- -- 77
2021-02-28 15:00:00 10.2 3 Sur 10 Sudeste 0 -- -- 75
2021-02-28 14:00:00 10.2 2 Este 10 Norte 0 -- -- 74
2021-02-28 13:00:00 10.2 5 Nordeste 12 Este 0 -- -- 73
2021-02-28 12:00:00 8 2 Nordeste 5 Norte 0 -- -- 87
2021-02-28 11:00:00 6.8 0 Calma 5 Nordeste 0 -- -- 88
2021-02-28 10:00:00 6.3 3 Norte 5 Nordeste 0 -- -- 91
2021-02-28 09:00:00 6 0 Calma 5 Sudeste 0 -- -- 92
2021-02-28 08:00:00 5.8 0 Calma 3 Sudeste 0 -- -- 91
2021-02-28 07:00:00 5.7 0 Calma 6 Sur 0 -- -- 91
2021-02-28 06:00:00 5.8 0 Calma 3 Sur 0 -- -- 89
2021-02-28 05:00:00 6.4 0 Calma 4 Sur 0 -- -- 88
2021-02-28 04:00:00 6.5 0 Calma 4 Oeste 0 -- -- 86
2021-02-28 03:00:00 6.8 0 Calma 4 Oeste 0 -- -- 85
2021-02-28 02:00:00 7.1 0 Calma 4 Noroeste 0 -- -- 84
2021-02-28 01:00:00 7.1 0 Calma 5 Noroeste 0 -- -- 82
2021-02-28 00:00:00 7.2 3 Oeste 4 Noroeste 0 -- -- 82
2021-02-27 23:00:00 7.5 0 Calma 5 Sur 0 -- -- 80
2021-02-27 22:00:00 7.6 0 Calma 8 Este 0 -- -- 77
2021-02-27 21:00:00 7.7 4 Sudeste 10 Este 0 -- -- 76
2021-02-27 20:00:00 7.9 0 Calma 11 Nordeste 0 -- -- 74
2021-02-27 19:00:00 8.2 3 Nordeste 16 Este 0 -- -- 71
2021-02-27 18:00:00 11.1 5 Nordeste 14 Este 0 -- -- 61
2021-02-27 17:00:00 12 4 Este 20 Nordeste 0 -- -- 58
2021-02-27 16:00:00 12.3 6 Nordeste 18 Nordeste 0 -- -- 59
2021-02-27 15:00:00 11.6 6 Este 19 Nordeste 0 -- -- 64
2021-02-27 14:00:00 11.8 5 Este 21 Nordeste 0 -- -- 64
2021-02-27 13:00:00 12.3 6 Nordeste 13 Este 0 -- -- 65
2021-02-27 12:00:00 10.8 4 Este 14 Este 0 -- -- 73
2021-02-27 11:00:00 10.1 6 Nordeste 14 Nordeste 0 -- -- 80
2021-02-27 10:00:00 9.9 4 Este 14 Este 0 -- -- 82
2021-02-27 09:00:00 9.5 0 Calma 10 Sudeste 0 -- -- 89
2021-02-27 08:00:00 9.3 0 Calma 4 Sur 0 -- -- 90
2021-02-27 07:00:00 9.3 0 Calma 4 Oeste 0 -- -- 89
2021-02-27 06:00:00 9.3 0 Calma 5 Sudoeste 0 -- -- 89
2021-02-27 05:00:00 9.5 0 Calma 5 Sudoeste 0 -- -- 88
2021-02-27 04:00:00 9.6 3 Sudeste 9 Sudeste 0 -- -- 87
2021-02-27 03:00:00 9.6 3 Sur 6 Sur 0 -- -- 87
2021-02-27 02:00:00 9.7 2 Este 10 Sudeste 0 -- -- 88
2021-02-27 01:00:00 9.8 0 Calma 10 Este 0 -- -- 87
2021-02-27 00:00:00 9.8 3 Sudoeste 8 Sur 0 -- -- 86
2021-02-26 23:00:00 9.8 0 Calma 7 Sur 0 -- -- 85
2021-02-26 22:00:00 10.2 3 Sur 6 Sudoeste 0 -- -- 83
2021-02-26 21:00:00 10.4 3 Sur 9 Sur 0 -- -- 83
2021-02-26 20:00:00 10.7 3 Sudoeste 12 Sudeste 0 -- -- 81
2021-02-26 19:00:00 11.1 4 Sur 12 Sudeste 0 -- -- 81
2021-02-26 18:00:00 11.4 3 Este 9 Sudeste 0 -- -- 80
2021-02-26 17:00:00 11.7 3 Sudeste 9 Este 0 -- -- 79
2021-02-26 16:00:00 11.6 2 Noroeste 7 Este 0 -- -- 78
2021-02-26 15:00:00 11.7 3 Nordeste 10 Este 0 -- -- 78
2021-02-26 14:00:00 12.1 0 Calma 5 Norte 0 -- -- 77
2021-02-26 13:00:00 11.9 3 Noroeste 8 Sur 0 -- -- 79
2021-02-26 12:00:00 11.6 2 Sur 9 Este 0 -- -- 81
2021-02-26 11:00:00 11.3 2 Este 6 Nordeste 0 -- -- 83
2021-02-26 10:00:00 10.4 0 Calma 3 Sur 0 -- -- 92
2021-02-26 09:00:00 10 0 Calma 4 Sudoeste 0 -- -- 92
2021-02-26 08:00:00 10 0 Calma 4 Sudoeste 0 -- -- 90
2021-02-26 07:00:00 10.1 0 Calma 7 Sudeste 0 -- -- 89
2021-02-26 06:00:00 10.3 0 Calma 7 Sur 0 -- -- 87
2021-02-26 05:00:00 10.1 3 Sur 7 Sur 0 -- -- 88
2021-02-26 04:00:00 10.1 0 Calma 3 Sur 0 -- -- 88
2021-02-26 03:00:00 10.3 0 Calma 4 Sur 0 -- -- 87
2021-02-26 02:00:00 10.4 0 Calma 3 Sur 0 -- -- 86
2021-02-26 01:00:00 10.7 0 Calma 3 Sur 0 -- -- 85
2021-02-26 00:00:00 10.9 2 Sudeste 4 Sudeste 0 -- -- 84
2021-02-25 23:00:00 11 0 Calma 7 Sudeste 0 -- -- 83
2021-02-25 22:00:00 11.3 0 Calma 8 Sur 0 -- -- 82
2021-02-25 21:00:00 11.5 3 Sur 9 Este 0 -- -- 81
2021-02-25 20:00:00 11.9 3 Nordeste 10 Sudeste 0 -- -- 80
2021-02-25 19:00:00 12.6 2 Este 10 Sudeste 0 -- -- 77
2021-02-25 18:00:00 13.9 3 Sudeste 10 Sudeste 0 -- -- 72
2021-02-25 17:00:00 15.1 3 Norte 10 Norte 0 -- -- 60
2021-02-25 16:00:00 15.4 4 Norte 8 Noroeste 0 -- -- 58
2021-02-25 15:00:00 16 3 Nordeste 9 Nordeste 0 -- -- 54
2021-02-25 14:00:00 15.8 5 Este 10 Sudeste 0 -- -- 53
2021-02-25 13:00:00 15.6 4 Sudeste 8 Sur 0 -- -- 55
2021-02-25 12:00:00 13.9 3 Oeste 8 Norte 0 -- -- 63
2021-02-25 11:00:00 11.5 0 Calma 4 Noroeste 0 -- -- 74
2021-02-25 10:00:00 9.5 0 Calma 6 Sudoeste 0 -- -- 87
2021-02-25 09:00:00 8.1 3 Sur 6 Sur 0 -- -- 88
2021-02-25 08:00:00 7.5 3 Sur 8 Sudoeste 0 -- -- 88
2021-02-25 07:00:00 7.6 3 Sudeste 6 Oeste 0 -- -- 87
2021-02-25 06:00:00 7.8 2 Sudeste 8 Este 0 -- -- 86
2021-02-25 05:00:00 8.3 4 Sudeste 11 Norte 0 -- -- 84
2021-02-25 04:00:00 9.1 4 Norte 13 Norte 0 -- -- 83
2021-02-25 03:00:00 9.8 4 Norte 13 Norte 0 -- -- 82
2021-02-25 02:00:00 10.3 4 Sudeste 12 Sudoeste 0 -- -- 80
2021-02-25 01:00:00 11.2 4 Nordeste 15 Sudeste 0 -- -- 75
2021-02-25 00:00:00 12.2 3 Nordeste 10 Norte 0 -- -- 70
2021-02-24 23:00:00 13 4 Sur 14 Noroeste 0 -- -- 66
2021-02-24 22:00:00 15.2 5 Norte 36 Sudoeste 0 -- -- 56
2021-02-24 21:00:00 16.5 16 Sudoeste 31 Sudoeste 0 -- -- 47
2021-02-24 20:00:00 16.6 7 Oeste 33 Sudoeste 0 -- -- 49
2021-02-24 19:00:00 17.1 13 Sudoeste 27 Sudoeste 0 -- -- 51
2021-02-24 18:00:00 19.1 10 Sudoeste 33 Sur 0 -- -- 45
2021-02-24 17:00:00 21.2 7 Sudoeste 32 Sur 0 -- -- 41
2021-02-24 16:00:00 21.1 11 Sudoeste 35 Sudoeste 0 -- -- 38
2021-02-24 15:00:00 20.5 13 Sudoeste 35 Sudoeste 0 -- -- 44
2021-02-24 14:00:00 19.5 12 Sudoeste 40 Sudoeste 0 -- -- 44
2021-02-24 13:00:00 18.7 12 Oeste 30 Sur 0 -- -- 42
2021-02-24 12:00:00 17.6 9 Sudoeste 24 Sur 0 -- -- 45
2021-02-24 11:00:00 15.9 9 Oeste 26 Sudoeste 0 -- -- 49
2021-02-24 10:00:00 13.8 9 Noroeste 23 Oeste 0 -- -- 54
2021-02-24 09:00:00 11.7 8 Oeste 25 Oeste 0 -- -- 61
2021-02-24 08:00:00 9.7 7 Norte 18 Norte 0 -- -- 72
2021-02-24 07:00:00 9.3 6 Nordeste 17 Norte 0 -- -- 74
2021-02-24 06:00:00 9.8 8 Nordeste 19 Norte 0 -- -- 71
2021-02-24 05:00:00 9.9 6 Nordeste 19 Noroeste 0 -- -- 69
2021-02-24 04:00:00 11.2 5 Norte 16 Oeste 0 -- -- 63
2021-02-24 03:00:00 10.9 7 Nordeste 37 Oeste 0 -- -- 66
2021-02-24 02:00:00 10.6 9 Norte 26 Norte 0 -- -- 68
2021-02-24 01:00:00 10 5 Norte 18 Oeste 0 -- -- 70
2021-02-24 00:00:00 11.1 5 Sudeste 14 Sur 0 -- -- 65
2021-02-23 23:00:00 12.9 5 Nordeste 25 Sudoeste 0 -- -- 58
2021-02-23 22:00:00 13.7 10 Sudoeste 31 Sudoeste 0 -- -- 54
2021-02-23 21:00:00 13.4 9 Sur 28 Sudoeste 0 -- -- 56
2021-02-23 20:00:00 13.9 6 Sur 23 Sur 0 -- -- 54
2021-02-23 19:00:00 14.9 7 Sur 27 Sudoeste 0 -- -- 51
2021-02-23 18:00:00 18.3 9 Sur 28 Sur 0 -- -- 40
2021-02-23 17:00:00 18.7 6 Sur 33 Oeste 0 -- -- 39
2021-02-23 16:00:00 18.1 15 Noroeste 39 Oeste 0 -- -- 40
2021-02-23 15:00:00 17.5 15 Noroeste 45 Oeste 0 -- -- 39
2021-02-23 14:00:00 17 10 Noroeste 33 Sudoeste 0 -- -- 45
2021-02-23 13:00:00 16.3 8 Sur 30 Sur 0 -- -- 45
2021-02-23 12:00:00 14.8 11 Sudoeste 35 Sudoeste 0 -- -- 51
2021-02-23 11:00:00 13.5 8 Sudoeste 39 Oeste 0 -- -- 51
2021-02-23 10:00:00 11.7 12 Sudoeste 43 Sudoeste 0 -- -- 56
2021-02-23 09:00:00 10.3 9 Oeste 40 Sudoeste 0.2 -- -- 62
2021-02-23 08:00:00 9.6 11 Sudoeste 34 Sudoeste 0 -- -- 64
2021-02-23 07:00:00 8.8 8 Sur 31 Sudoeste 0 -- -- 68
2021-02-23 06:00:00 7.6 5 Sudeste 25 Sur 0 -- -- 85
2021-02-23 05:00:00 5.1 6 Sudeste 15 Sudeste 0 -- -- 98
2021-02-23 04:00:00 4 3 Sudoeste 9 Sur 0 -- -- 96
2021-02-23 03:00:00 3.5 4 Sudoeste 9 Oeste 0 -- -- 96
2021-02-23 02:00:00 3.5 2 Sudeste 10 Sur 0 -- -- 96
2021-02-23 01:00:00 3.5 0 Calma 9 Sudeste 0 -- -- 95
2021-02-23 00:00:00 3.8 0 Calma 6 Sur 0 -- -- 95
2021-02-22 23:00:00 4.8 0 Calma 7 Sur 0 -- -- 94
2021-02-22 22:00:00 6.1 0 Calma -- -- 0 -- -- 94
2021-02-22 21:00:00 7.2 0 Calma -- -- 0 -- -- 93
2021-02-22 20:00:00 7.7 0 Calma -- -- 0 -- -- 92
2021-02-22 19:00:00 8.3 0 Calma 4 Sur 0 -- -- 91
2021-02-22 18:00:00 8.7 0 Calma -- -- 0 -- -- 91
2021-02-22 17:00:00 9.2 0 Calma 2 Sur 0 -- -- 91
2021-02-22 16:00:00 9.5 0 Calma -- -- 0 -- -- 88
2021-02-22 15:00:00 9.3 0 Calma 0 Calma 0.2 -- -- 91
2021-02-22 14:00:00 9.1 0 Calma 9 Noroeste 0 -- -- 92
2021-02-22 13:00:00 8.4 4 Norte 12 Norte 0.2 -- -- 96
2021-02-22 12:00:00 7.8 3 Oeste 5 Oeste 0.4 -- -- 97
2021-02-22 11:00:00 7.3 0 Calma 7 Sudoeste 0.8 -- -- 97
2021-02-22 10:00:00 6.6 5 Sur 9 Sudoeste 1 -- -- 97
2021-02-22 09:00:00 6 0 Calma 8 Sur 1.8 -- -- 96
2021-02-22 08:00:00 5.8 3 Sur 6 Sur 0.8 -- -- 96
2021-02-22 07:00:00 5.6 4 Sur 8 Sur 0.8 -- -- 96
2021-02-22 06:00:00 5.5 2 Sur 7 Sur 1.8 -- -- 95
2021-02-22 05:00:00 5.4 4 Sudoeste 9 Sur 2.4 -- -- 95
2021-02-22 04:00:00 5.3 2 Oeste 9 Sudoeste 1.4 -- -- 94
2021-02-22 03:00:00 5.2 2 Sudoeste 8 Sudoeste 3 -- -- 94
2021-02-22 02:00:00 5.2 2 Sudoeste 11 Noroeste 2.8 -- -- 93
2021-02-22 01:00:00 5.1 7 Noroeste 16 Noroeste 3.6 -- -- 93
2021-02-22 00:00:00 5.8 7 Norte 19 Norte 5.4 -- -- 92
2021-02-21 23:00:00 6.8 8 Noroeste 20 Norte 6.6 -- -- 90
2021-02-21 22:00:00 8.2 8 Sur 23 Sudeste 7 -- -- 88
2021-02-21 21:00:00 9.9 3 Sudeste 18 Sudeste 2.2 -- -- 88
2021-02-21 20:00:00 11.2 7 Sur 37 Sudoeste 0.8 -- -- 84
2021-02-21 19:00:00 12 4 Sudeste 21 Sudoeste 0 -- -- 78
2021-02-21 18:00:00 13 5 Sur 31 Sudoeste 0 -- -- 69
2021-02-21 17:00:00 13.7 10 Sudoeste 41 Sudoeste 0 -- -- 60
2021-02-21 16:00:00 13.7 12 Sudoeste 35 Sudoeste 0 -- -- 58
2021-02-21 15:00:00 14.4 4 Nordeste 37 Sudoeste 0 -- -- 54
2021-02-21 14:00:00 14.5 21 Sudoeste 56 Sudoeste 0 -- -- 49
2021-02-21 13:00:00 14.7 20 Oeste 51 Oeste 0 -- -- 48
2021-02-21 12:00:00 13.9 16 Sudoeste 59 Sudoeste 0 -- -- 48
2021-02-21 11:00:00 13.4 21 Sudoeste 50 Oeste 0 -- -- 47
2021-02-21 10:00:00 12.8 16 Sudoeste 60 Sudoeste 0 -- -- 52
2021-02-21 09:00:00 12.8 26 Sudoeste 54 Sudoeste 0 -- -- 51
2021-02-21 08:00:00 13.8 17 Sudoeste 47 Oeste 0 -- -- 44
2021-02-21 07:00:00 13.7 16 Sudoeste 46 Sudoeste 0 -- -- 45
2021-02-21 06:00:00 14 16 Oeste 48 Sudoeste 0 -- -- 44
2021-02-21 05:00:00 13.9 22 Sudoeste 55 Oeste 0 -- -- 44
2021-02-21 04:00:00 14.4 25 Sudoeste 53 Oeste 0 -- -- 43
2021-02-21 03:00:00 15.1 18 Sudoeste 52 Sudoeste 0 -- -- 41
2021-02-21 02:00:00 15.9 18 Sudoeste 50 Sudoeste 0 -- -- 39
2021-02-21 01:00:00 16.9 25 Sudoeste 53 Sudoeste 0 -- -- 35
2021-02-21 00:00:00 17.2 18 Sudoeste 49 Sudoeste 0 -- -- 34
2021-02-20 23:00:00 16.9 18 Sudoeste 52 Sur 0 -- -- 36
2021-02-20 22:00:00 17.2 16 Sudoeste 54 Sudoeste 0 -- -- 38
2021-02-20 21:00:00 17.2 15 Sur 42 Sudoeste 0 -- -- 39
2021-02-20 20:00:00 17.4 10 Sur 37 Sudoeste 0 -- -- 37
2021-02-20 19:00:00 17.6 11 Sur 47 Sudoeste 0 -- -- 37
2021-02-20 18:00:00 19.5 16 Sudoeste 42 Sudoeste 0 -- -- 31
2021-02-20 17:00:00 21 10 Sudoeste 41 Sudoeste 0 -- -- 27
2021-02-20 16:00:00 21.3 16 Sudoeste 40 Sur 0 -- -- 29
2021-02-20 15:00:00 20.8 10 Sudoeste 38 Sudoeste 0 -- -- 29
2021-02-20 14:00:00 20.7 10 Sudoeste 42 Sudoeste 0 -- -- 30
2021-02-20 13:00:00 18.9 12 Sur 45 Sur 0 -- -- 38
2021-02-20 12:00:00 19 18 Sudoeste 53 Sur 0 -- -- 34
2021-02-20 11:00:00 17.5 19 Sur 46 Sur 0 -- -- 33
2021-02-20 10:00:00 16.2 23 Sudoeste 51 Sur 0 -- -- 34
2021-02-20 09:00:00 15.7 22 Sudoeste 55 Sudoeste 0 -- -- 33
2021-02-20 08:00:00 15.8 17 Sur 44 Sur 0 -- -- 31
2021-02-20 07:00:00 16.5 14 Sudoeste 37 Sudoeste 0 -- -- 28
2021-02-20 06:00:00 17.7 15 Sudoeste 34 Oeste 0 -- -- 24
2021-02-20 05:00:00 16.8 8 Oeste 41 Oeste 0 -- -- 30
2021-02-20 04:00:00 18 13 Oeste 51 Sudoeste 0 -- -- 25
2021-02-20 03:00:00 17.8 12 Oeste 39 Oeste 0 -- -- 25
2021-02-20 02:00:00 17.4 12 Oeste 44 Sudoeste 0 -- -- 27
2021-02-20 01:00:00 17.3 8 Sudoeste 34 Oeste 0 -- -- 27
2021-02-20 00:00:00 17.6 9 Oeste 41 Noroeste 0 -- -- 28
2021-02-19 23:00:00 17.7 7 Oeste 41 Sudoeste 0 -- -- 29
2021-02-19 22:00:00 18.1 17 Oeste 53 Sudoeste 0 -- -- 30
2021-02-19 21:00:00 18.5 17 Oeste 51 Oeste 0 -- -- 31
2021-02-19 20:00:00 18.8 17 Oeste 43 Sudoeste 0 -- -- 29
2021-02-19 19:00:00 18.3 11 Sudoeste 32 Sur 0 -- -- 30
2021-02-19 18:00:00 18.2 5 Sudeste 25 Noroeste 0 -- -- 35
2021-02-19 17:00:00 19.2 6 Noroeste 36 Oeste 0 -- -- 27
2021-02-19 16:00:00 19.7 21 Oeste 55 Oeste 0 -- -- 25
2021-02-19 15:00:00 20.3 13 Noroeste 48 Sudoeste 0 -- -- 28
2021-02-19 14:00:00 19.1 13 Norte 39 Norte 0 -- -- 34
2021-02-19 13:00:00 17.5 14 Norte 46 Nordeste 0 -- -- 39
2021-02-19 12:00:00 17.5 13 Noroeste 53 Oeste 0 -- -- 39
2021-02-19 11:00:00 16.7 11 Sudeste 57 Oeste 0 -- -- 42
2021-02-19 10:00:00 15.5 27 Oeste 60 Sudoeste 0 -- -- 46
2021-02-19 09:00:00 14.4 22 Oeste 59 Sudoeste 0 -- -- 50
2021-02-19 08:00:00 14 10 Sur 57 Sudoeste 0 -- -- 48
2021-02-19 07:00:00 14.1 11 Norte 47 Sudoeste 0 -- -- 51
2021-02-19 06:00:00 14.3 12 Oeste 44 Oeste 0 -- -- 54
2021-02-19 05:00:00 14.5 13 Sudoeste 42 Sudoeste 0 -- -- 54
2021-02-19 04:00:00 14.2 10 Oeste 38 Sudoeste 0 -- -- 57
2021-02-19 03:00:00 14.4 15 Oeste 48 Oeste 0 -- -- 58
2021-02-19 02:00:00 14.2 11 Oeste 35 Sudoeste 0 -- -- 59
2021-02-19 01:00:00 10.6 10 Sudoeste 35 Noroeste 0 -- -- 77
2021-02-19 00:00:00 6.5 5 Este 10 Sudoeste 0 -- -- 92
2021-02-18 23:00:00 6.8 5 Sudeste 13 Sudoeste 0 -- -- 90
2021-02-18 22:00:00 7.6 2 Sur 6 Sudoeste 0 -- -- 89
2021-02-18 21:00:00 7.8 0 Calma 5 Sur 0 -- -- 87
2021-02-18 20:00:00 8.9 2 Sudeste 9 Sur 0 -- -- 83
2021-02-18 19:00:00 9.8 5 Sur 12 Sudeste 0 -- -- 78
2021-02-18 18:00:00 10.5 2 Sudeste 16 Sudeste 0 -- -- 81
2021-02-18 17:00:00 11.3 5 Sudeste 21 Sudeste 0 -- -- 77
2021-02-18 16:00:00 14 13 Sudeste 31 Norte 0 -- -- 64
2021-02-18 15:00:00 16.1 15 Nordeste 30 Noroeste 0 -- -- 47
2021-02-18 14:00:00 16.3 9 Norte 24 Nordeste 0 -- -- 45
2021-02-18 13:00:00 16.8 11 Norte 35 Noroeste 0 -- -- 39
2021-02-18 12:00:00 16.8 8 Nordeste 33 Norte 0 -- -- 38
2021-02-18 11:00:00 16.6 12 Nordeste 25 Nordeste 0 -- -- 39
2021-02-18 10:00:00 14.1 3 Sur 18 Sudeste 0 -- -- 49
2021-02-18 09:00:00 12.4 4 Este 25 Sudoeste 0 -- -- 55
2021-02-18 08:00:00 11.2 4 Sudoeste 13 Sur 0 -- -- 61
2021-02-18 07:00:00 13 3 Este 24 Oeste 0 -- -- 54
2021-02-18 06:00:00 13.6 6 Sudoeste 31 Sudoeste 0 -- -- 50
2021-02-18 05:00:00 13.9 3 Sur 20 Sur 0 -- -- 48
2021-02-18 04:00:00 14.5 7 Sur 19 Sudoeste 0 -- -- 46
2021-02-18 03:00:00 15 7 Oeste 23 Oeste 0 -- -- 49
2021-02-18 02:00:00 15.6 8 Noroeste 36 Sudoeste 0 -- -- 48
2021-02-18 01:00:00 16.4 9 Oeste 35 Sudoeste 0 -- -- 46
2021-02-18 00:00:00 17.3 15 Noroeste 45 Oeste 0 -- -- 38
2021-02-17 23:00:00 17.1 16 Oeste 58 Oeste 0 -- -- 45
2021-02-17 22:00:00 15.8 5 Sudoeste 19 Sur 0 -- -- 51
2021-02-17 21:00:00 15.2 5 Sudeste 15 Sur 0 -- -- 58
2021-02-17 20:00:00 15.1 5 Sur 18 Sudoeste 0 -- -- 59
2021-02-17 19:00:00 16.2 9 Sudoeste 47 Sudoeste 0 -- -- 52
2021-02-17 18:00:00 16.5 12 Oeste 33 Sudoeste 0 -- -- 52
2021-02-17 17:00:00 16.6 5 Este 32 Sur 0 -- -- 50
2021-02-17 16:00:00 16.4 10 Sudoeste 17 Oeste 0 -- -- 52
2021-02-17 15:00:00 16 6 Nordeste 17 Norte 0 -- -- 50
2021-02-17 14:00:00 16.1 6 Nordeste 39 Noroeste 0 -- -- 50
2021-02-17 13:00:00 15.6 17 Oeste 50 Sudoeste 0 -- -- 50
2021-02-17 12:00:00 16.7 6 Oeste 23 Este 0 -- -- 48
2021-02-17 11:00:00 15 6 Nordeste 22 Nordeste 0 -- -- 55
2021-02-17 10:00:00 12.5 5 Sudeste 17 Sudoeste 0 -- -- 64
2021-02-17 09:00:00 11 5 Noroeste 18 Noroeste 0 -- -- 71
2021-02-17 08:00:00 7.9 8 Sudoeste 32 Sur 0 -- -- 90
2021-02-17 07:00:00 7 4 Sudeste 7 Sudoeste 0 -- -- 91
2021-02-17 06:00:00 7.4 3 Nordeste 21 Oeste 0 -- -- 93
2021-02-17 05:00:00 5.7 2 Norte 14 Noroeste 0 -- -- 97
2021-02-17 04:00:00 5 4 Este 10 Sudeste 0 -- -- 96
2021-02-17 03:00:00 5.1 0 Calma 8 Sur 0 -- -- 95
2021-02-17 02:00:00 5.5 0 Calma 8 Sudoeste 0 -- -- 94
2021-02-17 01:00:00 5.6 0 Calma 6 Sur 0 -- -- 93
2021-02-17 00:00:00 6.2 0 Calma 6 Sur 0 -- -- 92
2021-02-16 23:00:00 6.8 3 Sur 5 Sur 0 -- -- 90
2021-02-16 22:00:00 7.9 2 Sur 8 Sudoeste 0 -- -- 89
2021-02-16 21:00:00 9.5 0 Calma 12 Sur 0 -- -- 88
2021-02-16 20:00:00 10.7 4 Sudoeste 8 Oeste 0.2 -- -- 86
2021-02-16 19:00:00 11.8 4 Sudoeste 10 Sudoeste 0 -- -- 76
2021-02-16 18:00:00 12.2 4 Sur 11 Sudeste 0 -- -- 71
2021-02-16 17:00:00 12.6 0 Calma 11 Sur 0 -- -- 70
2021-02-16 16:00:00 12.4 6 Sur 24 Sur 0 -- -- 71
2021-02-16 15:00:00 14.2 10 Sur 28 Sudoeste 0 -- -- 62
2021-02-16 14:00:00 15.3 9 Sudoeste 32 Sudoeste 0 -- -- 53
2021-02-16 13:00:00 15.4 18 Oeste 50 Sudoeste 0 -- -- 50
2021-02-16 12:00:00 14.9 21 Oeste 54 Oeste 0 -- -- 47
2021-02-16 11:00:00 15.2 28 Oeste 57 Sudoeste 0 -- -- 44
2021-02-16 10:00:00 15.7 18 Oeste 52 Sudoeste 0 -- -- 40
2021-02-16 09:00:00 14 11 Oeste 26 Norte 0 -- -- 44
2021-02-16 08:00:00 13.7 8 Norte 27 Sudoeste 0 -- -- 47
2021-02-16 07:00:00 15.6 12 Oeste 49 Oeste 0 -- -- 37
2021-02-16 06:00:00 13.3 8 Noroeste 37 Sudoeste 0 -- -- 48
2021-02-16 05:00:00 13.4 11 Oeste 30 Noroeste 0 -- -- 47
2021-02-16 04:00:00 13.1 7 Norte 39 Sudoeste 0 -- -- 51
2021-02-16 03:00:00 13.4 10 Noroeste 33 Oeste 0 -- -- 52
2021-02-16 02:00:00 13.1 5 Noroeste 42 Norte 0 -- -- 52
2021-02-16 01:00:00 12.8 10 Norte 49 Sudoeste 0 -- -- 55
2021-02-16 00:00:00 13.1 10 Noroeste 35 Sudoeste 0 -- -- 55
2021-02-15 23:00:00 13.3 11 Oeste 45 Oeste 0 -- -- 53
2021-02-15 22:00:00 11.3 6 Norte 27 Sur 0 -- -- 64
2021-02-15 21:00:00 11.5 8 Este 36 Sur 0 -- -- 63
2021-02-15 20:00:00 10.7 10 Oeste 33 Sudoeste 0 -- -- 66
2021-02-15 19:00:00 10.9 6 Nordeste 24 Nordeste 0 -- -- 66
2021-02-15 18:00:00 14 12 Sur 34 Sudoeste 0 -- -- 54
2021-02-15 17:00:00 18.2 5 Noroeste 21 Norte 0 -- -- 43
2021-02-15 16:00:00 18.2 6 Este 36 Sur 0 -- -- 42
2021-02-15 15:00:00 16.7 9 Sudoeste 42 Sudoeste 0 -- -- 45
2021-02-15 14:00:00 16.6 6 Sudeste 36 Oeste 0 -- -- 45
2021-02-15 13:00:00 15.7 9 Nordeste 65 Oeste 0 -- -- 48
2021-02-15 12:00:00 15.5 24 Oeste 54 Oeste 0 -- -- 46
2021-02-15 11:00:00 14.9 10 Este 33 Sur 0 -- -- 49
2021-02-15 10:00:00 12.9 6 Sudeste 41 Sur 0 -- -- 56
2021-02-15 09:00:00 11.7 8 Sur 38 Sur 0 -- -- 61
2021-02-15 08:00:00 11.5 11 Sudoeste 42 Sur 0 -- -- 61
2021-02-15 07:00:00 11 9 Sur 40 Oeste 0 -- -- 64
2021-02-15 06:00:00 10.9 9 Sur 36 Oeste 0 -- -- 64
2021-02-15 05:00:00 10.8 9 Nordeste 26 Sur 0 -- -- 66
2021-02-15 04:00:00 10.9 6 Sur 38 Sudoeste 0 -- -- 66
2021-02-15 03:00:00 12.3 17 Sudoeste 46 Oeste 0 -- -- 60
2021-02-15 02:00:00 13.5 18 Oeste 42 Oeste 0 -- -- 55
2021-02-15 01:00:00 13.9 9 Oeste 34 Oeste 0 -- -- 54
2021-02-15 00:00:00 14.2 13 Sudoeste 38 Sudoeste 0 -- -- 53
2021-02-14 23:00:00 14.1 14 Sudoeste 39 Sudoeste 0 -- -- 55
2021-02-14 22:00:00 14.6 11 Sudoeste 39 Sur 0 -- -- 53
2021-02-14 21:00:00 14.3 10 Sudoeste 45 Sudoeste 0 -- -- 55
2021-02-14 20:00:00 14.4 15 Sudoeste 51 Sudoeste 0 -- -- 56
2021-02-14 19:00:00 14.3 15 Sudoeste 45 Sudoeste 0 -- -- 58
2021-02-14 18:00:00 15.1 18 Sudoeste 47 Sudoeste 0 -- -- 55
2021-02-14 17:00:00 15.9 11 Sudoeste 47 Oeste 0 -- -- 56
2021-02-14 16:00:00 16.5 14 Sudoeste 35 Sudoeste 0 -- -- 53
2021-02-14 15:00:00 17.1 8 Este 33 Oeste 0 -- -- 47
2021-02-14 14:00:00 17.3 8 Sur 36 Sudoeste 0 -- -- 49
2021-02-14 13:00:00 16.8 22 Oeste 58 Oeste 0 -- -- 46
2021-02-14 12:00:00 15 17 Oeste 53 Oeste 0 -- -- 57
2021-02-14 11:00:00 13 13 Sur 33 Sur 0 -- -- 79
2021-02-14 10:00:00 8 3 Este 12 Noroeste 0 -- -- 99
2021-02-14 09:00:00 5 5 Sur 13 Sudoeste 0 -- -- 98
2021-02-14 08:00:00 4.5 4 Sudoeste 9 Sur 0 -- -- 98
2021-02-14 07:00:00 4.3 0 Calma 8 Sudoeste 0 -- -- 97
2021-02-14 06:00:00 4.4 2 Sudoeste 8 Sudoeste 0 -- -- 97
2021-02-14 05:00:00 4.6 3 Sur 8 Sur 0 -- -- 96
2021-02-14 04:00:00 4.7 2 Sur 6 Sudoeste 0 -- -- 96
2021-02-14 03:00:00 5 3 Sur 6 Sudoeste 0 -- -- 96
2021-02-14 02:00:00 5.1 0 Calma 6 Sur 0 -- -- 95
2021-02-14 01:00:00 5.3 0 Calma 7 Sudoeste 0 -- -- 95
2021-02-14 00:00:00 5.5 2 Sur 7 Sur 0 -- -- 94
2021-02-13 23:00:00 5.9 2 Sudoeste 6 Sudoeste 0 -- -- 93
2021-02-13 22:00:00 6.6 3 Sudoeste 6 Sudoeste 0 -- -- 90
2021-02-13 21:00:00 7.5 3 Sudoeste 8 Sudoeste 0 -- -- 87
2021-02-13 20:00:00 9.1 3 Sudoeste 8 Sudoeste 0 -- -- 85
2021-02-13 19:00:00 10.8 4 Sur 13 Sur 0 -- -- 80
2021-02-13 18:00:00 11.8 2 Oeste 9 Oeste 0 -- -- 80
2021-02-13 17:00:00 14.7 8 Oeste 12 Oeste 0 -- -- 65
2021-02-13 16:00:00 15.2 3 Noroeste 9 Norte 0 -- -- 63
2021-02-13 15:00:00 12.9 3 Este 6 Este 0 -- -- 71
2021-02-13 14:00:00 11.1 0 Calma 5 Sudoeste 0 -- -- 88
2021-02-13 13:00:00 10.4 0 Calma 6 Noroeste 0 -- -- 93
2021-02-13 08:00:00 -- -- -- -- -- -- -- -- --
2021-02-13 07:00:00 4.4 0 Calma 3 Sur 0 -- -- 97
2021-02-13 06:00:00 4.5 0 Calma 5 Sur 0 -- -- 97
2021-02-13 05:00:00 4.5 0 Calma 5 Sur 0 -- -- 97
2021-02-13 04:00:00 4.7 0 Calma 5 Sur 0 -- -- 97
2021-02-13 03:00:00 5.1 3 Sur 4 Sur 0 -- -- 97
2021-02-13 02:00:00 5.5 3 Sur 8 Sudoeste 0 -- -- 96
2021-02-13 01:00:00 6.3 0 Calma 8 Sur 0 -- -- 96
2021-02-13 00:00:00 7.4 4 Sur 9 Sur 0 -- -- 96
2021-02-12 23:00:00 7.9 3 Sur 6 Sudeste 0 -- -- 96
2021-02-12 22:00:00 8.3 0 Calma 8 Sudeste 0 -- -- 96
2021-02-12 21:00:00 8.6 3 Sur 8 Sudoeste 0 -- -- 95
2021-02-12 20:00:00 9.8 3 Sudoeste 10 Noroeste 0 -- -- 95
2021-02-12 19:00:00 10.1 5 Noroeste 16 Norte 1.2 -- -- 95
2021-02-12 18:00:00 10.6 5 Noroeste 20 Norte 0.2 -- -- 94
2021-02-12 17:00:00 10.5 9 Nordeste 20 Noroeste 0.6 -- -- 96
2021-02-12 16:00:00 10.5 9 Norte 26 Norte 1 -- -- 95
2021-02-12 15:00:00 10.7 9 Norte 21 Noroeste 3.2 -- -- 95
2021-02-12 14:00:00 10.8 3 Norte 12 Nordeste 1 -- -- 94
2021-02-12 13:00:00 10.6 4 Noroeste 15 Norte 1.4 -- -- 94
2021-02-12 12:00:00 10.7 7 Norte 16 Norte 0.6 -- -- 93
2021-02-12 11:00:00 10.9 8 Nordeste 15 Nordeste 0.2 -- -- 95
2021-02-12 10:00:00 11.2 2 Sudoeste 7 Sur 0.4 -- -- 95
2021-02-12 09:00:00 11 2 Sur 6 Sudoeste 0.8 -- -- 94
2021-02-12 08:00:00 11.1 0 Calma 7 Sur 0.6 -- -- 93
2021-02-12 07:00:00 11.5 0 Calma 17 Nordeste 1 -- -- 91
2021-02-12 06:00:00 12.4 8 Nordeste 28 Nordeste 2 -- -- 85
2021-02-12 05:00:00 14.3 9 Oeste 48 Sudoeste 0.4 -- -- 69
2021-02-12 04:00:00 15.9 14 Oeste 44 Sudoeste 0 -- -- 59
2021-02-12 03:00:00 16.1 10 Norte 40 Nordeste 0 -- -- 58
2021-02-12 02:00:00 15.9 8 Sur 31 Sudoeste 0 -- -- 60
2021-02-12 01:00:00 15.6 14 Sudoeste 43 Sudoeste 0 -- -- 61
2021-02-12 00:00:00 15.1 5 Sudoeste 20 Sudoeste 0 -- -- 64
2021-02-11 23:00:00 16.1 12 Oeste 31 Oeste 0 -- -- 59
2021-02-11 22:00:00 11.8 3 Sur 8 Sudoeste 0 -- -- 77
2021-02-11 21:00:00 13.3 3 Sudoeste 17 Oeste 0 -- -- 69
2021-02-11 20:00:00 15.4 3 Sur 25 Noroeste 0 -- -- 60
2021-02-11 19:00:00 16.2 10 Sudoeste 36 Oeste 0 -- -- 56
2021-02-11 18:00:00 16.5 13 Oeste 30 Oeste 0 -- -- 54
2021-02-11 17:00:00 17 6 Norte 18 Sudoeste 0 -- -- 57
2021-02-11 16:00:00 17.2 5 Nordeste 18 Norte 0 -- -- 57
2021-02-11 15:00:00 17.9 6 Norte 23 Norte 0 -- -- 52
2021-02-11 14:00:00 17.2 7 Nordeste 23 Nordeste 0 -- -- 55
2021-02-11 13:00:00 17.1 8 Nordeste 22 Noroeste 0 -- -- 54
2021-02-11 12:00:00 16 4 Este 14 Sudoeste 0 -- -- 57
2021-02-11 11:00:00 14.2 4 Nordeste 19 Oeste 0 -- -- 65
2021-02-11 10:00:00 11.8 4 Norte 28 Sudoeste 0 -- -- 71
2021-02-11 09:00:00 10.1 7 Nordeste 21 Sudoeste 0 -- -- 75
2021-02-11 08:00:00 9.5 6 Norte 24 Oeste 0 -- -- 71
2021-02-11 07:00:00 6.6 4 Sudeste 14 Este 0 -- -- 90
2021-02-11 06:00:00 5.5 4 Este 12 Sur 0 -- -- 96
2021-02-11 05:00:00 4.6 4 Sur 15 Nordeste 0 -- -- 97
2021-02-11 04:00:00 3.5 4 Este 10 Oeste 0 -- -- 95
2021-02-11 03:00:00 3.4 2 Sudoeste 8 Oeste 0 -- -- 95
2021-02-11 02:00:00 3.4 4 Sudoeste 6 Sudoeste 0 -- -- 94
2021-02-11 01:00:00 3.8 3 Sudoeste 8 Sur 0 -- -- 92
2021-02-11 00:00:00 4.2 2 Sur 8 Sur 0 -- -- 91
2021-02-10 23:00:00 5.1 4 Sudoeste 7 Sur 0 -- -- 89
2021-02-10 22:00:00 6 2 Sur 5 Sudoeste 0 -- -- 88
2021-02-10 21:00:00 6.7 3 Sur 8 Sudoeste 0 -- -- 87
2021-02-10 20:00:00 7.7 3 Sur 11 Sur 0 -- -- 82
2021-02-10 19:00:00 8.9 0 Calma 9 Sur 0 -- -- 80
2021-02-10 18:00:00 10.4 4 Sudoeste 13 Noroeste 0 -- -- 76
2021-02-10 17:00:00 12.2 5 Norte 11 Norte 0 -- -- 60
2021-02-10 16:00:00 11.7 3 Norte 11 Este 0 -- -- 66
2021-02-10 15:00:00 11.1 0 Calma 15 Noroeste 0 -- -- 68
2021-02-10 14:00:00 10.7 2 Noroeste 12 Norte 0 -- -- 67
2021-02-10 13:00:00 10.8 5 Norte 16 Norte 0 -- -- 69
2021-02-10 12:00:00 9.5 4 Norte 17 Noroeste 0 -- -- 80
2021-02-10 11:00:00 8 3 Noroeste 7 Sur 0 -- -- 95
2021-02-10 10:00:00 6.6 0 Calma 8 Sudeste 0 -- -- 96
2021-02-10 09:00:00 5.9 2 Sudeste 9 Sur 0.2 -- -- 94
2021-02-10 08:00:00 6.2 3 Sur 7 Sur 0 -- -- 94
2021-02-10 07:00:00 6.3 0 Calma 6 Sur 0.2 -- -- 93
2021-02-10 06:00:00 6.6 0 Calma 9 Sur 1.2 -- -- 92
2021-02-10 05:00:00 7.2 5 Sudoeste 16 Oeste 1.2 -- -- 86
2021-02-10 04:00:00 8.5 4 Este 10 Nordeste 0 -- -- 65
2021-02-10 03:00:00 8.8 6 Noroeste 27 Sudoeste 0 -- -- 59
2021-02-10 02:00:00 9.1 13 Oeste 34 Oeste 0 -- -- 56
2021-02-10 01:00:00 9.1 7 Oeste 28 Oeste 0 -- -- 56
2021-02-10 00:00:00 8.8 4 Este 31 Oeste 0 -- -- 62
2021-02-09 23:00:00 9.2 10 Oeste 27 Sudoeste 0 -- -- 64
2021-02-09 22:00:00 9.8 11 Oeste 25 Oeste 0 -- -- 57
2021-02-09 21:00:00 10.1 6 Oeste 27 Oeste 0 -- -- 55
2021-02-09 20:00:00 8.7 5 Oeste 22 Sudoeste 0 -- -- 62
2021-02-09 19:00:00 9.9 15 Oeste 32 Oeste 0 -- -- 55
2021-02-09 18:00:00 10.9 9 Norte 28 Oeste 0 -- -- 51
2021-02-09 17:00:00 12.6 12 Norte 36 Noroeste 0 -- -- 48
2021-02-09 16:00:00 11 8 Oeste 38 Sudoeste 0 -- -- 57
2021-02-09 15:00:00 11.1 13 Oeste 46 Sudoeste 0.4 -- -- 65
2021-02-09 14:00:00 11.8 10 Norte 34 Norte 0 -- -- 67
2021-02-09 13:00:00 13.1 11 Norte 36 Norte 0 -- -- 57
2021-02-09 12:00:00 13.2 11 Norte 51 Sudoeste 0 -- -- 55
2021-02-09 11:00:00 12.6 22 Oeste 91 Oeste 0 -- -- 58
2021-02-09 10:00:00 12.3 24 Oeste 58 Oeste 0 -- -- 57
2021-02-09 09:00:00 11.3 17 Sudoeste 80 Sudoeste 0 -- -- 61
2021-02-09 08:00:00 9.7 14 Sur 37 Sur 0 -- -- 64
2021-02-09 07:00:00 9.6 10 Oeste 34 Oeste 0 -- -- 65
2021-02-09 06:00:00 9.6 4 Noroeste 22 Sur 0.2 -- -- 70
2021-02-09 05:00:00 10.3 12 Oeste 29 Sudoeste 0 -- -- 66
2021-02-09 04:00:00 9.9 7 Sur 31 Sudoeste 0 -- -- 68
2021-02-09 03:00:00 8.1 8 Oeste 28 Oeste 0 -- -- 77
2021-02-09 02:00:00 7.9 2 Nordeste 14 Noroeste 0 -- -- 79
2021-02-09 01:00:00 7.7 5 Noroeste 30 Norte 0 -- -- 81
2021-02-09 00:00:00 5.2 0 Calma 9 Sudeste 0 -- -- 94
2021-02-08 23:00:00 6.2 3 Sur 8 Sur 0 -- -- 93
2021-02-08 22:00:00 7 0 Calma 15 Sudoeste 0 -- -- 90
2021-02-08 21:00:00 8.2 5 Sudoeste 13 Sudoeste 0.2 -- -- 90
2021-02-08 20:00:00 9 2 Sur 9 Sudoeste 0 -- -- 88
2021-02-08 19:00:00 9.6 0 Calma 8 Sur 0 -- -- 83
2021-02-08 18:00:00 10.3 3 Sur 8 Sudoeste 0 -- -- 77
2021-02-08 17:00:00 11.8 4 Sudoeste 19 Sudeste 0 -- -- 70
2021-02-08 16:00:00 11.8 5 Este 18 Oeste 0 -- -- 68
2021-02-08 15:00:00 13.2 6 Noroeste 28 Oeste 0 -- -- 53
2021-02-08 14:00:00 13.8 8 Norte 24 Norte 0 -- -- 52
2021-02-08 13:00:00 13 6 Norte 17 Nordeste 0 -- -- 63
2021-02-08 12:00:00 11.5 4 Noroeste 9 Norte 0 -- -- 78
2021-02-08 11:00:00 8.8 0 Calma 5 Sudoeste 0.6 -- -- 93
2021-02-08 10:00:00 8.7 0 Calma 5 Sur 0.2 -- -- 91
2021-02-08 09:00:00 8.6 2 Sudoeste 5 Sudoeste 0 -- -- 85
2021-02-08 08:00:00 9.1 2 Nordeste 15 Sudoeste 0 -- -- 79
2021-02-08 07:00:00 9.6 5 Oeste 15 Sudoeste 0 -- -- 75
2021-02-08 06:00:00 10 5 Sudoeste 24 Sur 0 -- -- 70
2021-02-08 05:00:00 9.6 9 Sur 37 Oeste 0.4 -- -- 75
2021-02-08 04:00:00 9.9 10 Noroeste 58 Oeste 0.2 -- -- 70
2021-02-08 03:00:00 9.1 11 Sudoeste 27 Sudoeste 0.6 -- -- 76
2021-02-08 02:00:00 9.4 4 Este 24 Nordeste 0 -- -- 74
2021-02-08 01:00:00 8.7 5 Sudeste 23 Oeste 0 -- -- 72
2021-02-08 00:00:00 7.9 6 Este 19 Nordeste 0 -- -- 76
2021-02-07 23:00:00 8.6 8 Nordeste 28 Nordeste 0 -- -- 71
2021-02-07 22:00:00 7.5 4 Sudeste 15 Oeste 0.2 -- -- 81
2021-02-07 21:00:00 7.2 5 Este 34 Oeste 0.4 -- -- 82
2021-02-07 20:00:00 7.5 6 Sudoeste 33 Noroeste 0.6 -- -- 80
2021-02-07 19:00:00 8.4 8 Norte 26 Noroeste 0 -- -- 65
2021-02-07 18:00:00 8.8 0 Calma 9 Oeste 0 -- -- 76
2021-02-07 17:00:00 9.7 0 Calma 12 Norte 0 -- -- 63
2021-02-07 16:00:00 10.2 7 Norte 24 Oeste 0 -- -- 54
2021-02-07 15:00:00 10.5 6 Nordeste 17 Nordeste 0 -- -- 55
2021-02-07 14:00:00 10.8 5 Noroeste 13 Noroeste 0 -- -- 56
2021-02-07 13:00:00 9.3 6 Norte 15 Norte 0 -- -- 66
2021-02-07 12:00:00 8 2 Norte 5 Norte 0 -- -- 95
2021-02-07 11:00:00 6.1 2 Este 3 Este 0 -- -- 99
2021-02-07 10:00:00 4.7 0 Calma 4 Sudeste 0 -- -- 99
2021-02-07 09:00:00 4.2 0 Calma 4 Sur 0 -- -- 98
2021-02-07 08:00:00 3.9 0 Calma 7 Oeste 0 -- -- 98
2021-02-07 07:00:00 4.2 2 Sudeste 8 Norte 0 -- -- 98
2021-02-07 06:00:00 4.4 0 Calma 5 Nordeste 0 -- -- 98
2021-02-07 05:00:00 4.5 0 Calma 4 Sur 0 -- -- 98
2021-02-07 04:00:00 4.5 0 Calma 4 Oeste 0.2 -- -- 98
2021-02-07 03:00:00 4.3 0 Calma 5 Sudeste 0 -- -- 97
2021-02-07 02:00:00 4.4 4 Sur 7 Sur 0 -- -- 97
2021-02-07 01:00:00 4.3 3 Sudeste 6 Sudeste 0.2 -- -- 97
2021-02-07 00:00:00 4.8 0 Calma 10 Noroeste 0.4 -- -- 96
2021-02-06 23:00:00 5.3 3 Sudoeste 5 Sudoeste 0.2 -- -- 96
2021-02-06 22:00:00 5.9 0 Calma 6 Norte 0.2 -- -- 96
2021-02-06 21:00:00 6.2 0 Calma 4 Nordeste 0.2 -- -- 96
2021-02-06 20:00:00 6.3 0 Calma 5 Noroeste 0.8 -- -- 96
2021-02-06 19:00:00 6.4 0 Calma 6 Sudoeste 0.8 -- -- 95
2021-02-06 18:00:00 6.6 4 Nordeste 12 Nordeste 0.6 -- -- 93
2021-02-06 17:00:00 6.9 2 Nordeste 12 Norte 0.2 -- -- 94
2021-02-06 16:00:00 7 5 Norte 14 Norte 0.4 -- -- 96
2021-02-06 15:00:00 7.5 6 Nordeste 22 Nordeste 0.8 -- -- 96
2021-02-06 14:00:00 7.7 7 Nordeste 17 Noroeste 2 -- -- 97
2021-02-06 13:00:00 8.5 6 Nordeste 18 Noroeste 2.4 -- -- 97
2021-02-06 12:00:00 8.5 12 Norte 28 Norte 3.8 -- -- 98
2021-02-06 11:00:00 9 12 Norte 24 Norte 6.2 -- -- 98
2021-02-06 10:00:00 9.5 4 Norte 16 Norte 2.2 -- -- 98
2021-02-06 09:00:00 9.5 4 Norte 10 Noroeste 2.4 -- -- 98
2021-02-06 08:00:00 9.3 0 Calma 3 Sur 2.4 -- -- 98
2021-02-06 07:00:00 9.3 0 Calma 2 Sur 2.8 -- -- 98
2021-02-06 06:00:00 9.3 0 Calma 3 Sur 2.4 -- -- 98
2021-02-06 05:00:00 9.4 3 Sur 5 Sur 1.2 -- -- 98
2021-02-06 04:00:00 9.4 0 Calma 4 Noroeste 1.2 -- -- 98
2021-02-06 03:00:00 9.5 0 Calma 4 Noroeste 0 -- -- 98
2021-02-06 02:00:00 9.5 0 Calma 10 Sur 0 -- -- 97
2021-02-06 01:00:00 9.5 4 Sur 10 Sudoeste 0.2 -- -- 97
2021-02-06 00:00:00 9.5 0 Calma 8 Sur 0 -- -- 97
2021-02-05 23:00:00 9.5 2 Este 9 Este 0.2 -- -- 97
2021-02-05 22:00:00 9.6 3 Sur 10 Sur 0 -- -- 97
2021-02-05 21:00:00 9.7 4 Sudoeste 8 Sudeste 0.2 -- -- 97
2021-02-05 20:00:00 9.9 0 Calma 6 Sudeste 0.2 -- -- 97
2021-02-05 19:00:00 10.1 0 Calma 2 Sudoeste 0.6 -- -- 97
2021-02-05 18:00:00 10.1 2 Oeste 4 Sudoeste 0 -- -- 97
2021-02-05 17:00:00 10.2 0 Calma 5 Nordeste 0 -- -- 97
2021-02-05 16:00:00 10.3 3 Nordeste 5 Norte 0 -- -- 97
2021-02-05 15:00:00 10.1 0 Calma 4 Norte 0 -- -- 97
2021-02-05 14:00:00 9.9 0 Calma 3 Norte 0 -- -- 97
2021-02-05 13:00:00 9.4 0 Calma 3 Norte 0 -- -- 97
2021-02-05 12:00:00 9 0 Calma 5 Norte 0 -- -- 98
2021-02-05 11:00:00 8.9 0 Calma 4 Oeste 0 -- -- 98
2021-02-05 10:00:00 8.3 0 Calma 5 Oeste 0.2 -- -- 98
2021-02-05 09:00:00 7.8 0 Calma 8 Norte 0 -- -- 97
2021-02-05 08:00:00 7.7 5 Sudoeste 11 Norte 0.2 -- -- 97
2021-02-05 07:00:00 7.3 4 Sudeste 9 Sur 0.2 -- -- 97
2021-02-05 06:00:00 7 2 Sudoeste 4 Sudoeste 0 -- -- 97
2021-02-05 05:00:00 7 0 Calma 4 Sur 0 -- -- 96
2021-02-05 04:00:00 7.5 0 Calma 5 Sur 0 -- -- 96
2021-02-05 03:00:00 7.7 0 Calma 3 Sudoeste 0 -- -- 96
2021-02-05 02:00:00 7.8 0 Calma 4 Sudoeste 0 -- -- 95
2021-02-05 01:00:00 8 3 Sudoeste 4 Sudoeste 0 -- -- 96
2021-02-05 00:00:00 8.4 0 Calma 4 Este 0 -- -- 95
2021-02-04 23:00:00 8.5 0 Calma 5 Sudoeste 0 -- -- 95
2021-02-04 22:00:00 8.5 0 Calma 8 Sur 0.4 -- -- 94
2021-02-04 21:00:00 8.6 3 Sur 9 Oeste 4.6 -- -- 92
2021-02-04 20:00:00 9.3 6 Oeste 17 Norte 0.4 -- -- 87
2021-02-04 19:00:00 10.7 6 Nordeste 21 Noroeste 0 -- -- 77
2021-02-04 18:00:00 11.4 0 Calma 10 Norte 0 -- -- 74
2021-02-04 17:00:00 12 0 Calma 5 Sudoeste 0 -- -- 84
2021-02-04 16:00:00 12.9 5 Noroeste 11 Nordeste 0 -- -- 72
2021-02-04 15:00:00 14.1 0 Calma 4 Norte 0 -- -- 66
2021-02-04 14:00:00 14 2 Oeste 5 Oeste 0 -- -- 70
2021-02-04 13:00:00 14.4 0 Calma 10 Norte 0 -- -- 62
2021-02-04 12:00:00 14.4 3 Nordeste 13 Sudeste 0 -- -- 60
2021-02-04 11:00:00 13.8 5 Sudoeste 20 Oeste 0 -- -- 59
2021-02-04 10:00:00 12.8 5 Noroeste 13 Oeste 0 -- -- 68
2021-02-04 09:00:00 12.7 7 Sudoeste 17 Noroeste 0 -- -- 65
2021-02-04 08:00:00 12.1 4 Sudoeste 13 Sudoeste 0 -- -- 66
2021-02-04 07:00:00 12.3 5 Sur 22 Oeste 0 -- -- 63
2021-02-04 06:00:00 12.3 9 Sudoeste 23 Sudoeste 0 -- -- 63
2021-02-04 05:00:00 12 5 Oeste 22 Oeste 0 -- -- 65
2021-02-04 04:00:00 12.5 8 Oeste 20 Oeste 0 -- -- 62
2021-02-04 03:00:00 12.2 5 Oeste 19 Sudoeste 0 -- -- 64
2021-02-04 02:00:00 12.3 3 Oeste 16 Oeste 0 -- -- 66
2021-02-04 01:00:00 12.6 6 Oeste 14 Sudoeste 0 -- -- 66
2021-02-04 00:00:00 12.8 5 Norte 17 Sur 0 -- -- 66
2021-02-03 23:00:00 13.4 6 Sudoeste 19 Sudoeste 0 -- -- 63
2021-02-03 22:00:00 13.6 5 Norte 21 Sudoeste 0 -- -- 62
2021-02-03 21:00:00 13.5 6 Oeste 18 Sudoeste 0 -- -- 60
2021-02-03 20:00:00 13.9 6 Oeste 13 Sudoeste 0 -- -- 59
2021-02-03 19:00:00 14.8 4 Oeste 19 Sudoeste 0 -- -- 50
2021-02-03 18:00:00 15.7 4 Oeste 13 Sudoeste 0 -- -- 45
2021-02-03 17:00:00 16.7 0 Calma 21 Sur 0 -- -- 45
2021-02-03 16:00:00 15.6 3 Sudoeste 10 Sudoeste 0 -- -- 55
2021-02-03 15:00:00 16.4 5 Norte 26 Norte 0 -- -- 42
2021-02-03 14:00:00 15.8 6 Noroeste 22 Norte 0 -- -- 46
2021-02-03 13:00:00 14.9 7 Norte 26 Norte 0 -- -- 52
2021-02-03 12:00:00 15.4 11 Norte 28 Norte 0 -- -- 51
2021-02-03 11:00:00 14.6 6 Oeste 24 Oeste 0 -- -- 62
2021-02-03 10:00:00 14.5 8 Oeste 24 Sudoeste 0 -- -- 62
2021-02-03 09:00:00 14.6 9 Oeste 23 Nordeste 0 -- -- 61
2021-02-03 08:00:00 14.5 6 Norte 28 Norte 0 -- -- 60
2021-02-03 07:00:00 14.6 10 Nordeste 30 Nordeste 0 -- -- 60
2021-02-03 06:00:00 14.6 10 Nordeste 28 Norte 0 -- -- 59
2021-02-03 05:00:00 14.7 11 Nordeste 32 Nordeste 0 -- -- 57
2021-02-03 04:00:00 14.8 10 Oeste 35 Oeste 0 -- -- 55
2021-02-03 03:00:00 14.5 4 Sudeste 26 Noroeste 0 -- -- 55
2021-02-03 02:00:00 15.1 10 Noroeste 40 Oeste 0 -- -- 52
2021-02-03 01:00:00 15.4 19 Oeste 49 Sudoeste 0 -- -- 51
2021-02-03 00:00:00 15.3 9 Norte 40 Sudoeste 0 -- -- 52
2021-02-02 23:00:00 15.4 13 Oeste 62 Sudoeste 0 -- -- 55
2021-02-02 22:00:00 15.3 10 Nordeste 34 Sur 0 -- -- 57
2021-02-02 21:00:00 15.3 13 Oeste 42 Nordeste 0 -- -- 57
2021-02-02 20:00:00 14.2 8 Sur 21 Sur 0 -- -- 62
2021-02-02 19:00:00 14.5 10 Sudoeste 42 Sur 0 -- -- 61
2021-02-02 18:00:00 14.8 12 Sudoeste 36 Sur 0 -- -- 62
2021-02-02 17:00:00 13.1 7 Sudeste 26 Norte 0.6 -- -- 80
2021-02-02 16:00:00 15.1 11 Noroeste 32 Oeste 0.2 -- -- 64
2021-02-02 15:00:00 17.7 13 Norte 38 Norte 0 -- -- 50
2021-02-02 14:00:00 18.8 10 Oeste 42 Oeste 0 -- -- 49
2021-02-02 13:00:00 18.6 6 Este 35 Sudoeste 0 -- -- 48
2021-02-02 12:00:00 16.9 10 Oeste 42 Oeste 0 -- -- 52
2021-02-02 11:00:00 15.8 14 Noroeste 48 Norte 0 -- -- 56
2021-02-02 10:00:00 14.9 7 Nordeste 27 Oeste 0 -- -- 61
2021-02-02 09:00:00 14.6 6 Noroeste 30 Sudoeste 0 -- -- 61
2021-02-02 08:00:00 14.6 10 Noroeste 41 Sudoeste 0 -- -- 62
2021-02-02 07:00:00 12.7 7 Noroeste 21 Norte 0 -- -- 73
2021-02-02 06:00:00 10.6 5 Oeste 12 Sudoeste 0 -- -- 85
2021-02-02 05:00:00 9.9 3 Oeste 16 Noroeste 0 -- -- 93
2021-02-02 04:00:00 8.6 3 Sur 10 Noroeste 0 -- -- 95
2021-02-02 03:00:00 8.1 5 Este 11 Sur 0 -- -- 95
2021-02-02 02:00:00 8.7 3 Sur 9 Sudeste 0 -- -- 94
2021-02-02 01:00:00 9.9 4 Este 18 Oeste 0 -- -- 91
2021-02-02 00:00:00 10.7 5 Oeste 18 Noroeste 0 -- -- 95
2021-02-01 23:00:00 10.9 3 Este 14 Sudeste 0 -- -- 96
2021-02-01 22:00:00 11.1 2 Este 5 Oeste 0.2 -- -- 94
2021-02-01 21:00:00 11.4 0 Calma 4 Oeste 0.2 -- -- 93
2021-02-01 20:00:00 11.7 2 Sur 13 Sur 0.4 -- -- 92
2021-02-01 19:00:00 12.9 3 Sur 5 Sudoeste 1.6 -- -- 85
2021-02-01 18:00:00 14.5 3 Sur 13 Sudeste 0 -- -- 72
2021-02-01 17:00:00 16.1 2 Este 17 Noroeste 0 -- -- 62
2021-02-01 16:00:00 17.8 6 Noroeste 18 Norte 0 -- -- 53
2021-02-01 15:00:00 15.9 9 Norte 26 Norte 0 -- -- 61
2021-02-01 14:00:00 15.8 12 Nordeste 31 Norte 0 -- -- 60
2021-02-01 13:00:00 15.9 12 Nordeste 29 Nordeste 0 -- -- 60
2021-02-01 12:00:00 15.3 10 Norte 26 Norte 0 -- -- 58
2021-02-01 11:00:00 14 5 Norte 14 Sudoeste 0 -- -- 64
2021-02-01 10:00:00 8.9 7 Sudoeste 14 Sudoeste 0 -- -- 83
2021-02-01 09:00:00 8.6 9 Sudoeste 16 Sur 0 -- -- 79
2021-02-01 08:00:00 10.1 5 Sudoeste 14 Sudoeste 0 -- -- 72
2021-02-01 07:00:00 11.1 4 Sudoeste 22 Oeste 0 -- -- 70
2021-02-01 06:00:00 10.8 6 Oeste 13 Noroeste 0 -- -- 76
2021-02-01 05:00:00 10.6 4 Sur 13 Sudoeste 0 -- -- 78
2021-02-01 04:00:00 10.2 4 Sur 12 Sur 0 -- -- 80
2021-02-01 03:00:00 10.7 5 Sudoeste 10 Sur 0 -- -- 79
2021-02-01 02:00:00 11.7 4 Sudoeste 18 Norte 0 -- -- 72
2021-02-01 01:00:00 11.2 5 Nordeste 19 Este 0 -- -- 75
2021-02-01 00:00:00 10.1 3 Sudoeste 10 Sudeste 0 -- -- 87
2021-01-31 23:00:00 10.1 3 Sudoeste 9 Sudoeste 0 -- -- 87
2021-01-31 22:00:00 10.6 3 Sudoeste 14 Sudoeste 0 -- -- 83
2021-01-31 21:00:00 10.9 2 Sur 7 Oeste 0 -- -- 81
2021-01-31 20:00:00 13.2 5 Norte 32 Sudoeste 0 -- -- 73
2021-01-31 19:00:00 15.4 8 Oeste 33 Oeste 0 -- -- 61
2021-01-31 18:00:00 15.1 10 Oeste 31 Sudoeste 0 -- -- 63
2021-01-31 17:00:00 16.2 10 Noroeste 27 Oeste 0 -- -- 57
2021-01-31 16:00:00 16.6 7 Oeste 16 Noroeste 0 -- -- 57
2021-01-31 15:00:00 16.5 6 Oeste 16 Norte 0 -- -- 64
2021-01-31 14:00:00 14 6 Noroeste 32 Oeste 0 -- -- 73
2021-01-31 13:00:00 10.8 5 Este 10 Este 0.2 -- -- 90
2021-01-31 12:00:00 9.4 4 Nordeste 14 Norte 0.6 -- -- 91
2021-01-31 11:00:00 8.5 4 Este 20 Noroeste 2 -- -- 88
2021-01-31 10:00:00 8.9 3 Nordeste 11 Sur 0 -- -- 81
2021-01-31 09:00:00 9.4 4 Sur 15 Sudoeste 0 -- -- 73
2021-01-31 08:00:00 9.9 4 Sur 22 Norte 0 -- -- 64
2021-01-31 07:00:00 10.7 8 Nordeste 31 Norte 0 -- -- 61
2021-01-31 06:00:00 10.5 6 Nordeste 29 Nordeste 0 -- -- 66
2021-01-31 05:00:00 10.4 8 Nordeste 33 Nordeste 0 -- -- 67
2021-01-31 04:00:00 10.1 13 Nordeste 46 Norte 0 -- -- 70
2021-01-31 03:00:00 10.5 13 Nordeste 36 Nordeste 0 -- -- 67
2021-01-31 02:00:00 10.3 8 Nordeste 33 Norte 0 -- -- 69
2021-01-31 01:00:00 9.6 10 Norte 25 Norte 0 -- -- 72
2021-01-31 00:00:00 7.9 4 Sudeste 12 Norte 0 -- -- 88